Time;durP1;ratioP1;P1;durP2;ratioP2;P2;SDS_P1;SDS_P2;PMS_P1;PMS_P2;Temp;Humidity;BMP_temperature;BMP_pressure;BME280_temperature;BME280_humidity;BME280_pressure;Samples;Min_cycle;Max_cycle;Signal;HPM_P1;HPM_P2
2023/12/24 00:00:31;;;;;;;8.43;0.65;;;10.40;99.90;;;;;;4982258;28;20026;-95
2023/12/24 00:02:58;;;;;;;7.45;0.60;;;10.40;99.90;;;;;;4994665;28;20169;-95
2023/12/24 00:05:25;;;;;;;5.28;0.70;;;10.40;99.90;;;;;;4978543;28;20062;-93
2023/12/24 00:07:51;;;;;;;5.15;0.50;;;10.40;99.90;;;;;;4998101;28;20030;-96
2023/12/24 00:10:16;;;;;;;5.07;0.70;;;10.40;99.90;;;;;;5003573;28;20026;-95
2023/12/24 00:12:42;;;;;;;6.88;0.80;;;10.40;99.90;;;;;;4998307;28;20106;-95
2023/12/24 00:15:08;;;;;;;5.10;0.70;;;10.40;99.90;;;;;;4999426;28;20061;-95
2023/12/24 00:17:35;;;;;;;3.08;0.65;;;10.40;99.90;;;;;;4999529;28;20071;-95
2023/12/24 00:20:03;;;;;;;5.32;0.60;;;10.40;99.90;;;;;;4995987;28;20084;-94
2023/12/24 00:22:29;;;;;;;6.75;0.70;;;10.50;99.90;;;;;;4999514;28;20101;-94
2023/12/24 00:24:55;;;;;;;4.53;0.55;;;10.40;99.90;;;;;;5004667;28;20027;-94
2023/12/24 00:27:20;;;;;;;4.78;0.63;;;10.50;99.90;;;;;;5000081;28;20049;-95
2023/12/24 00:29:47;;;;;;;4.90;0.60;;;10.60;99.90;;;;;;5004283;28;20033;-95
2023/12/24 00:32:15;;;;;;;4.38;0.50;;;10.50;99.90;;;;;;5000131;28;20506;-95
2023/12/24 00:34:41;;;;;;;2.72;0.40;;;10.50;99.90;;;;;;5001223;28;20022;-95
2023/12/24 00:37:07;;;;;;;3.58;0.50;;;10.50;99.90;;;;;;5004794;28;20031;-94
2023/12/24 00:39:35;;;;;;;2.00;0.40;;;10.50;99.90;;;;;;5003724;28;20037;-96
2023/12/24 00:42:01;;;;;;;6.70;0.40;;;10.50;99.90;;;;;;5004847;28;20026;-93
2023/12/24 00:44:29;;;;;;;4.13;0.70;;;10.50;99.90;;;;;;5003832;28;20037;-96
2023/12/24 00:46:55;;;;;;;4.78;0.40;;;10.50;99.90;;;;;;4986550;28;20035;-94
2023/12/24 00:49:21;;;;;;;4.10;0.60;;;10.40;99.90;;;;;;4990322;28;20554;-95
2023/12/24 00:51:47;;;;;;;4.90;0.40;;;10.50;99.90;;;;;;5000627;28;20030;-95
2023/12/24 00:54:13;;;;;;;4.07;0.50;;;10.60;99.90;;;;;;4997117;28;20026;-95
2023/12/24 00:56:38;;;;;;;8.10;1.05;;;10.60;99.90;;;;;;4998106;28;20030;-93
2023/12/24 00:59:04;;;;;;;3.58;0.50;;;10.50;99.90;;;;;;5012588;28;20165;-95
2023/12/24 01:01:30;;;;;;;4.13;0.50;;;10.50;99.90;;;;;;4992221;28;20022;-94
2023/12/24 01:03:57;;;;;;;5.93;0.60;;;10.50;99.90;;;;;;5006257;28;20030;-94
2023/12/24 01:06:23;;;;;;;2.17;0.50;;;10.50;99.90;;;;;;5006129;28;20030;-94
2023/12/24 01:08:49;;;;;;;5.03;0.50;;;10.50;99.90;;;;;;5013028;28;20108;-94
2023/12/24 01:11:16;;;;;;;5.80;0.60;;;10.50;99.90;;;;;;4981670;28;20039;-95
2023/12/24 01:13:42;;;;;;;4.55;0.77;;;10.50;99.90;;;;;;5001040;28;20026;-95
2023/12/24 01:16:10;;;;;;;5.88;0.60;;;10.50;99.90;;;;;;5002397;28;20053;-95
2023/12/24 01:18:37;;;;;;;2.60;0.50;;;10.50;99.90;;;;;;4997019;28;20022;-96
2023/12/24 01:21:03;;;;;;;3.97;0.73;;;10.50;99.90;;;;;;4997134;28;20030;-96
2023/12/24 01:23:28;;;;;;;3.65;0.60;;;10.50;99.90;;;;;;4991075;28;20399;-95
2023/12/24 01:25:54;;;;;;;2.78;0.73;;;10.50;99.90;;;;;;4989515;28;20078;-95
2023/12/24 01:28:19;;;;;;;3.88;0.52;;;10.50;99.90;;;;;;4997896;28;20033;-93
2023/12/24 01:30:45;;;;;;;4.40;0.60;;;10.30;99.90;;;;;;4994007;28;20034;-92
2023/12/24 01:33:11;;;;;;;3.75;0.50;;;10.30;99.90;;;;;;4993507;28;20501;-93
2023/12/24 01:35:37;;;;;;;3.65;0.55;;;10.20;99.90;;;;;;4992298;28;20508;-92
2023/12/24 01:38:03;;;;;;;3.17;0.50;;;10.20;99.90;;;;;;4993832;28;20030;-93
2023/12/24 01:40:29;;;;;;;7.07;0.80;;;10.10;99.90;;;;;;4993842;28;20372;-93
2023/12/24 01:42:54;;;;;;;3.75;0.52;;;10.00;99.90;;;;;;4997660;28;20118;-93
2023/12/24 01:45:21;;;;;;;4.38;0.60;;;9.90;99.90;;;;;;4994455;28;20093;-94
2023/12/24 01:47:49;;;;;;;5.50;0.65;;;9.90;99.90;;;;;;5001283;28;20053;-93
2023/12/24 01:50:15;;;;;;;4.10;0.60;;;9.80;99.90;;;;;;4987047;28;20510;-94
2023/12/24 01:52:42;;;;;;;6.68;0.80;;;9.80;99.90;;;;;;4999540;28;20168;-94
2023/12/24 01:55:09;;;;;;;7.07;0.63;;;9.70;99.90;;;;;;4999566;28;20019;-94
2023/12/24 01:57:35;;;;;;;4.93;0.70;;;9.80;99.90;;;;;;5001404;28;20034;-94
2023/12/24 02:00:01;;;;;;;3.15;0.90;;;9.70;99.90;;;;;;5002832;28;20014;-94
2023/12/24 02:02:28;;;;;;;4.30;0.95;;;9.60;99.90;;;;;;4996014;28;20022;-93
2023/12/24 02:04:54;;;;;;;5.38;1.55;;;9.60;99.90;;;;;;5000140;28;20058;-93
2023/12/24 02:07:23;;;;;;;10.55;1.70;;;9.50;99.90;;;;;;4997021;28;20033;-95
2023/12/24 02:09:48;;;;;;;11.07;2.13;;;9.50;99.90;;;;;;5003076;28;20018;-94
2023/12/24 02:12:14;;;;;;;8.05;2.03;;;9.50;99.90;;;;;;5000771;28;20049;-94
2023/12/24 02:14:40;;;;;;;11.05;1.63;;;9.50;99.90;;;;;;4995068;28;20439;-93
2023/12/24 02:17:06;;;;;;;11.20;2.50;;;9.50;99.90;;;;;;5018850;28;20437;-94
2023/12/24 02:19:32;;;;;;;8.77;1.73;;;9.50;99.90;;;;;;5008188;28;20523;-96
2023/12/24 02:21:57;;;;;;;7.47;1.70;;;9.50;99.90;;;;;;5008394;28;20014;-95
2023/12/24 02:24:23;;;;;;;8.32;1.88;;;9.60;99.90;;;;;;5006164;28;20462;-94
2023/12/24 02:27:04;;;;;;;11.63;2.28;;;9.60;99.90;;;;;;5009387;28;20023;-95
2023/12/24 02:29:37;;;;;;;12.13;2.80;;;9.60;99.90;;;;;;5012415;28;20026;-95
2023/12/24 02:32:07;;;;;;;10.93;2.92;;;9.60;99.90;;;;;;5009969;28;20046;-95
2023/12/24 02:34:34;;;;;;;4.43;2.58;;;9.60;99.90;;;;;;5006819;28;20041;-95
2023/12/24 02:37:00;;;;;;;9.82;3.20;;;9.70;99.90;;;;;;5005715;28;20038;-95
2023/12/24 02:39:25;;;;;;;11.75;3.33;;;9.70;99.90;;;;;;5002827;28;20058;-96
2023/12/24 02:41:51;;;;;;;12.57;3.50;;;9.70;99.90;;;;;;5006504;28;20034;-95
2023/12/24 02:44:16;;;;;;;11.13;3.10;;;9.70;99.90;;;;;;5006995;28;20058;-95
2023/12/24 02:46:42;;;;;;;10.02;2.40;;;9.70;99.90;;;;;;5007272;28;20026;-96
2023/12/24 02:49:08;;;;;;;11.85;3.05;;;9.80;99.90;;;;;;5008861;28;20030;-94
2023/12/24 02:51:33;;;;;;;8.02;2.45;;;9.80;99.90;;;;;;5006365;28;20033;-96
2023/12/24 02:53:59;;;;;;;8.35;2.22;;;9.70;99.90;;;;;;5009753;28;20093;-96
2023/12/24 02:56:24;;;;;;;9.65;1.95;;;9.80;99.90;;;;;;5008311;28;20041;-96
2023/12/24 02:58:50;;;;;;;11.48;2.00;;;9.80;99.90;;;;;;5003193;28;20030;-96
2023/12/24 03:01:16;;;;;;;8.55;1.73;;;9.70;99.90;;;;;;5005786;28;20034;-93
2023/12/24 03:03:41;;;;;;;6.38;1.15;;;9.80;99.90;;;;;;5008266;28;20038;-95
2023/12/24 03:06:07;;;;;;;7.97;1.30;;;9.80;99.90;;;;;;5013871;28;20108;-95
2023/12/24 03:08:32;;;;;;;7.75;1.80;;;9.80;99.90;;;;;;5012169;28;20038;-96
2023/12/24 03:11:01;;;;;;;4.78;1.30;;;9.80;99.90;;;;;;5010322;28;20030;-94
2023/12/24 03:13:51;;;;;;;6.18;1.27;;;9.80;99.90;;;;;;4992330;28;20129;-95
2023/12/24 03:16:17;;;;;;;4.53;1.52;;;9.80;99.90;;;;;;5014420;28;20026;-96
2023/12/24 03:18:43;;;;;;;5.47;1.10;;;9.90;99.90;;;;;;5010598;28;20018;-95
2023/12/24 03:21:21;;;;;;;4.50;1.05;;;9.90;99.90;;;;;;5016031;28;20030;-92
2023/12/24 03:23:49;;;;;;;5.00;1.13;;;9.80;99.90;;;;;;5001407;28;20146;-96
2023/12/24 03:26:24;;;;;;;6.35;1.20;;;9.80;99.90;;;;;;5007190;28;20517;-95
2023/12/24 03:28:51;;;;;;;2.15;0.68;;;9.80;99.90;;;;;;4997754;28;20027;-96
2023/12/24 03:31:18;;;;;;;4.53;1.25;;;9.80;99.90;;;;;;5010251;28;20042;-96
2023/12/24 03:34:02;;;;;;;5.70;0.77;;;9.80;99.90;;;;;;5012119;28;20034;-96
2023/12/24 03:36:36;;;;;;;3.97;0.77;;;9.80;99.90;;;;;;5009823;28;20035;-95
2023/12/24 03:39:02;;;;;;;4.90;0.80;;;9.80;99.90;;;;;;5007788;28;20038;-96
2023/12/24 03:41:27;;;;;;;5.65;0.80;;;9.80;99.90;;;;;;5008696;28;20117;-96
2023/12/24 03:44:15;;;;;;;2.40;0.90;;;9.80;99.90;;;;;;5008752;28;20018;-96
2023/12/24 03:46:46;;;;;;;4.15;1.13;;;9.80;99.90;;;;;;4995427;28;20023;-94
2023/12/24 03:49:13;;;;;;;3.28;1.25;;;9.70;99.90;;;;;;5007034;28;20054;-95
2023/12/24 03:52:03;;;;;;;3.55;1.27;;;9.70;99.90;;;;;;5007962;28;20329;-94
2023/12/24 03:54:30;;;;;;;4.95;1.00;;;9.80;99.90;;;;;;5003503;28;20034;-95
2023/12/24 03:56:56;;;;;;;2.67;0.80;;;9.80;99.90;;;;;;5011945;28;20046;-96
2023/12/24 03:59:22;;;;;;;2.70;0.60;;;9.70;99.90;;;;;;5008287;28;20054;-94
2023/12/24 04:01:48;;;;;;;1.60;0.85;;;9.80;99.90;;;;;;5007528;28;20034;-95
2023/12/24 04:04:13;;;;;;;1.92;0.60;;;9.80;99.90;;;;;;5006928;28;20037;-95
2023/12/24 04:06:39;;;;;;;1.67;0.60;;;9.80;99.90;;;;;;5008529;28;20041;-93
2023/12/24 04:09:05;;;;;;;3.00;0.80;;;9.90;99.90;;;;;;5010604;28;20062;-95
2023/12/24 04:11:31;;;;;;;1.77;0.80;;;9.90;99.90;;;;;;5005156;28;20034;-95
2023/12/24 04:13:57;;;;;;;3.47;1.13;;;10.00;99.90;;;;;;5010123;28;20014;-95
2023/12/24 04:16:23;;;;;;;3.15;1.40;;;9.90;99.90;;;;;;5011854;28;20038;-96
2023/12/24 04:18:49;;;;;;;4.30;1.73;;;9.90;99.90;;;;;;5006480;28;20019;-96
2023/12/24 04:21:16;;;;;;;5.32;2.70;;;9.90;99.90;;;;;;5012346;28;20106;-94
2023/12/24 04:23:44;;;;;;;5.25;2.53;;;10.00;99.90;;;;;;5004463;28;20078;-96
2023/12/24 04:26:19;;;;;;;5.38;3.35;;;10.00;99.90;;;;;;4989922;28;20395;-96
2023/12/24 04:28:46;;;;;;;3.55;2.92;;;9.90;99.90;;;;;;5000777;28;20049;-96
2023/12/24 04:31:13;;;;;;;5.68;2.97;;;9.90;99.90;;;;;;5005757;28;20402;-96
2023/12/24 04:33:38;;;;;;;3.97;3.28;;;9.90;99.90;;;;;;5004731;28;20042;-95
2023/12/24 04:36:04;;;;;;;3.95;2.70;;;10.00;99.90;;;;;;5007699;28;20030;-94
2023/12/24 04:38:30;;;;;;;3.90;2.78;;;10.00;99.90;;;;;;5013739;28;20090;-95
2023/12/24 04:40:55;;;;;;;5.40;2.72;;;10.10;99.90;;;;;;5010883;28;20125;-94
2023/12/24 04:43:21;;;;;;;4.05;2.55;;;10.00;99.90;;;;;;5007480;28;20034;-96
2023/12/24 04:45:47;;;;;;;3.05;1.40;;;10.00;99.90;;;;;;5010265;28;20023;-96
2023/12/24 04:48:16;;;;;;;2.72;1.50;;;10.10;99.90;;;;;;5010216;28;20482;-96
2023/12/24 04:50:41;;;;;;;2.00;1.30;;;10.10;99.90;;;;;;5012178;28;20018;-96
2023/12/24 04:53:07;;;;;;;2.08;1.02;;;10.10;99.90;;;;;;5012063;28;20034;-94
2023/12/24 04:55:35;;;;;;;1.75;1.13;;;10.00;99.90;;;;;;5013464;28;20057;-95
2023/12/24 04:58:00;;;;;;;1.85;1.10;;;10.00;99.90;;;;;;5007773;28;20098;-96
2023/12/24 05:00:26;;;;;;;2.00;0.80;;;10.10;99.90;;;;;;5006883;28;20034;-94
2023/12/24 05:02:52;;;;;;;3.38;1.17;;;10.10;99.90;;;;;;5009464;28;20054;-96
2023/12/24 05:05:18;;;;;;;1.40;0.80;;;10.10;99.90;;;;;;5005962;28;20071;-96
2023/12/24 05:07:44;;;;;;;2.15;0.80;;;10.10;99.90;;;;;;4994519;28;20030;-96
2023/12/24 05:10:09;;;;;;;0.80;0.50;;;10.10;99.90;;;;;;5013163;28;20030;-95
2023/12/24 05:12:35;;;;;;;1.15;0.65;;;10.10;99.90;;;;;;5009069;28;20065;-96
2023/12/24 05:15:01;;;;;;;1.42;0.70;;;10.10;99.90;;;;;;5009980;28;20026;-95
2023/12/24 05:17:27;;;;;;;2.25;1.00;;;10.20;99.90;;;;;;5024540;28;20042;-95
2023/12/24 05:19:53;;;;;;;1.38;0.60;;;10.20;99.90;;;;;;5006751;28;20030;-94
2023/12/24 05:22:20;;;;;;;1.00;0.50;;;10.10;99.90;;;;;;5007510;28;20058;-95
2023/12/24 05:24:45;;;;;;;0.82;0.40;;;10.30;99.90;;;;;;5005645;28;20029;-94
2023/12/24 05:27:11;;;;;;;0.75;0.40;;;10.20;99.90;;;;;;4996932;28;20027;-96
2023/12/24 05:29:37;;;;;;;1.13;0.40;;;10.20;99.90;;;;;;5008784;28;20043;-95
2023/12/24 05:32:03;;;;;;;0.50;0.30;;;10.20;99.90;;;;;;5009664;28;20049;-96
2023/12/24 05:34:29;;;;;;;0.50;0.30;;;10.20;99.90;;;;;;5016470;28;20516;-95
2023/12/24 05:36:55;;;;;;;0.80;0.30;;;10.20;99.90;;;;;;5016972;28;20030;-95
2023/12/24 05:39:20;;;;;;;0.90;0.38;;;10.30;99.90;;;;;;5012021;28;20010;-93
2023/12/24 05:41:46;;;;;;;0.60;0.35;;;10.30;99.90;;;;;;5014558;28;20045;-95
2023/12/24 05:44:15;;;;;;;0.50;0.30;;;10.40;99.90;;;;;;5010315;28;20030;-95
2023/12/24 05:46:40;;;;;;;0.60;0.30;;;10.30;99.90;;;;;;5025703;28;20033;-94
2023/12/24 05:49:07;;;;;;;0.75;0.32;;;10.30;99.90;;;;;;5010009;28;20018;-94
2023/12/24 05:51:33;;;;;;;0.90;0.30;;;10.40;99.90;;;;;;5009532;28;20034;-95
2023/12/24 05:53:58;;;;;;;0.77;0.20;;;10.30;99.90;;;;;;5007670;28;20065;-95
2023/12/24 05:56:24;;;;;;;0.47;0.20;;;10.40;99.90;;;;;;5007738;28;20019;-96
2023/12/24 05:58:50;;;;;;;0.80;0.20;;;10.40;99.90;;;;;;4998351;28;20030;-95
2023/12/24 06:01:15;;;;;;;0.32;0.13;;;10.40;99.90;;;;;;5012851;28;20030;-96
2023/12/24 06:03:44;;;;;;;0.40;0.20;;;10.40;99.90;;;;;;5005334;28;20039;-96
2023/12/24 06:06:10;;;;;;;1.02;0.73;;;10.50;99.90;;;;;;4992987;28;20031;-95
2023/12/24 06:08:35;;;;;;;2.05;0.30;;;10.50;99.90;;;;;;5010396;28;20030;-96
2023/12/24 06:11:01;;;;;;;0.65;0.20;;;10.50;99.90;;;;;;5012444;28;20030;-95
2023/12/24 06:13:27;;;;;;;1.02;0.30;;;10.50;99.90;;;;;;5013281;28;20026;-95
2023/12/24 06:15:53;;;;;;;1.05;0.40;;;10.50;99.90;;;;;;5013288;28;20046;-96
2023/12/24 06:18:18;;;;;;;2.35;0.32;;;10.50;99.90;;;;;;5012350;28;20066;-95
2023/12/24 06:20:44;;;;;;;1.67;0.40;;;10.50;99.90;;;;;;5016162;28;20079;-95
2023/12/24 06:23:10;;;;;;;0.93;0.50;;;10.50;99.90;;;;;;5013793;28;20029;-96
2023/12/24 06:25:35;;;;;;;1.42;0.50;;;10.50;99.90;;;;;;5000077;28;20042;-96
2023/12/24 06:28:01;;;;;;;2.25;0.60;;;10.50;99.90;;;;;;5018429;28;20026;-96
2023/12/24 06:30:27;;;;;;;1.92;0.50;;;10.60;99.90;;;;;;5018072;28;20042;-96
2023/12/24 06:32:53;;;;;;;2.03;0.50;;;10.60;99.90;;;;;;5006813;28;20063;-96
2023/12/24 06:35:21;;;;;;;1.63;0.60;;;10.60;99.90;;;;;;5026007;28;20021;-96
2023/12/24 06:37:46;;;;;;;2.42;0.60;;;10.60;99.90;;;;;;5019305;28;20018;-88
2023/12/24 06:40:12;;;;;;;1.67;0.50;;;10.60;99.90;;;;;;5018622;28;20406;-95
2023/12/24 06:42:38;;;;;;;1.10;0.52;;;10.70;99.90;;;;;;5019785;28;20019;-94
2023/12/24 06:45:04;;;;;;;1.98;0.50;;;10.60;99.90;;;;;;5017869;28;20033;-95
2023/12/24 06:47:30;;;;;;;1.08;0.60;;;10.70;99.90;;;;;;5011053;28;20063;-96
2023/12/24 06:49:56;;;;;;;2.30;0.80;;;10.70;99.90;;;;;;4997070;28;20051;-95
2023/12/24 06:52:26;;;;;;;3.38;0.85;;;10.60;99.90;;;;;;5015113;28;20046;-96
2023/12/24 06:54:56;;;;;;;3.50;0.77;;;10.70;99.90;;;;;;5014595;28;20030;-94
2023/12/24 06:57:24;;;;;;;1.63;0.60;;;10.70;99.90;;;;;;5014725;28;20113;-96
2023/12/24 06:59:50;;;;;;;1.70;0.80;;;10.70;99.90;;;;;;5016542;28;20042;-95
2023/12/24 07:02:16;;;;;;;2.35;0.73;;;10.70;99.90;;;;;;5014844;28;20014;-96
2023/12/24 07:04:49;;;;;;;2.47;0.70;;;10.70;99.90;;;;;;4994349;28;20045;-96
2023/12/24 07:07:15;;;;;;;2.38;0.68;;;10.80;99.90;;;;;;5012178;28;20034;-96
2023/12/24 07:09:41;;;;;;;1.55;0.68;;;10.70;99.90;;;;;;5013662;28;20022;-96
2023/12/24 07:12:07;;;;;;;3.00;0.80;;;10.70;99.90;;;;;;5013770;28;20026;-96
2023/12/24 07:14:33;;;;;;;2.88;0.85;;;10.80;99.90;;;;;;5013034;28;20036;-96
2023/12/24 07:16:58;;;;;;;2.65;0.60;;;10.70;99.90;;;;;;5009551;28;20010;-96
2023/12/24 07:19:24;;;;;;;2.33;0.65;;;10.80;99.90;;;;;;5026147;28;20049;-95
2023/12/24 07:21:50;;;;;;;3.40;0.82;;;10.90;99.90;;;;;;4996635;28;20026;-96
2023/12/24 07:24:15;;;;;;;2.85;0.70;;;10.80;99.90;;;;;;5003791;28;20042;-95
2023/12/24 07:26:41;;;;;;;2.78;0.70;;;10.80;99.90;;;;;;5022851;28;20034;-94
2023/12/24 07:29:07;;;;;;;2.70;0.70;;;10.80;99.90;;;;;;5007604;28;20030;-95
2023/12/24 07:31:33;;;;;;;4.03;0.98;;;10.80;99.90;;;;;;5006622;28;20031;-96
2023/12/24 07:33:59;;;;;;;1.88;0.70;;;10.80;99.90;;;;;;5020377;28;20141;-95
2023/12/24 07:36:25;;;;;;;2.92;0.70;;;10.80;99.90;;;;;;5004958;28;20062;-96
2023/12/24 07:38:51;;;;;;;1.85;0.95;;;10.80;99.90;;;;;;5007660;28;20030;-96
2023/12/24 07:41:20;;;;;;;1.95;0.80;;;10.80;99.90;;;;;;5002397;28;20038;-95
2023/12/24 07:43:46;;;;;;;2.65;0.80;;;10.80;99.90;;;;;;5002593;28;20022;-95
2023/12/24 07:46:11;;;;;;;2.92;0.75;;;10.80;99.90;;;;;;5003847;28;20030;-96
2023/12/24 07:48:38;;;;;;;1.45;0.60;;;10.90;99.90;;;;;;4998395;28;20034;-96
2023/12/24 07:51:03;;;;;;;2.40;0.93;;;10.80;99.90;;;;;;4992414;28;20023;-95
2023/12/24 07:53:29;;;;;;;2.45;0.70;;;10.80;99.90;;;;;;4989924;28;20062;-95
2023/12/24 07:55:55;;;;;;;2.58;0.60;;;10.80;99.90;;;;;;5002294;28;20057;-96
2023/12/24 07:58:24;;;;;;;2.00;0.70;;;10.90;99.90;;;;;;5030633;28;20023;-92
2023/12/24 08:00:50;;;;;;;2.42;0.60;;;10.90;99.90;;;;;;5015521;28;20027;-95
2023/12/24 08:03:15;;;;;;;2.63;0.75;;;10.90;99.90;;;;;;5008173;28;20096;-95
2023/12/24 08:05:44;;;;;;;3.05;0.70;;;10.90;99.90;;;;;;5014174;28;20022;-95
2023/12/24 08:08:10;;;;;;;1.10;0.50;;;10.90;99.90;;;;;;5010365;28;20080;-94
2023/12/24 08:10:36;;;;;;;1.98;0.50;;;10.90;99.90;;;;;;5006776;28;20039;-96
2023/12/24 08:13:02;;;;;;;2.08;0.70;;;10.90;99.90;;;;;;5000692;28;20034;-95
2023/12/24 08:15:28;;;;;;;1.73;0.50;;;10.90;99.90;;;;;;5003492;28;20106;-96
2023/12/24 08:17:55;;;;;;;1.65;0.57;;;10.80;99.90;;;;;;5010753;28;20042;-96
2023/12/24 08:20:30;;;;;;;0.82;0.40;;;10.90;99.90;;;;;;5009266;28;20478;-96
2023/12/24 08:22:58;;;;;;;3.15;0.40;;;11.00;99.90;;;;;;5012371;28;20034;-96
2023/12/24 08:25:23;;;;;;;0.80;0.50;;;11.00;99.90;;;;;;5026556;28;20026;-95
2023/12/24 08:27:51;;;;;;;1.33;0.50;;;11.00;99.90;;;;;;5011218;28;20002;-96
2023/12/24 08:30:18;;;;;;;1.77;0.30;;;11.00;99.90;;;;;;5018006;28;20029;-95
2023/12/24 08:32:45;;;;;;;1.38;0.40;;;11.00;99.90;;;;;;4993105;28;20065;-96
2023/12/24 08:35:12;;;;;;;2.55;0.30;;;11.10;99.90;;;;;;5001450;28;20135;-96
2023/12/24 08:37:38;;;;;;;1.45;0.30;;;11.00;99.90;;;;;;5011051;28;20042;-95
2023/12/24 08:40:06;;;;;;;0.60;0.20;;;11.00;99.90;;;;;;5005809;28;20002;-94
2023/12/24 08:42:33;;;;;;;0.95;0.20;;;11.00;99.90;;;;;;5024409;28;20010;-95
2023/12/24 08:44:59;;;;;;;0.82;0.20;;;11.10;99.90;;;;;;5007441;28;20034;-94
2023/12/24 08:47:31;;;;;;;0.82;0.20;;;11.10;99.90;;;;;;5019969;28;20026;-96
2023/12/24 08:49:57;;;;;;;1.80;0.30;;;11.10;99.90;;;;;;5005237;28;20387;-95
2023/12/24 08:52:26;;;;;;;1.00;0.30;;;11.10;99.90;;;;;;5000539;28;20057;-95
2023/12/24 08:54:52;;;;;;;0.93;0.40;;;11.10;99.90;;;;;;5005400;28;20018;-96
2023/12/24 08:57:18;;;;;;;0.60;0.30;;;11.10;99.90;;;;;;5009729;28;20033;-96
2023/12/24 08:59:44;;;;;;;1.00;0.32;;;11.10;99.90;;;;;;5009199;28;20026;-96
2023/12/24 09:02:09;;;;;;;0.65;0.30;;;11.20;99.90;;;;;;5007546;28;20026;-95
2023/12/24 09:04:35;;;;;;;1.30;0.32;;;11.10;99.90;;;;;;5008249;28;20034;-95
2023/12/24 09:07:01;;;;;;;5.93;1.95;;;11.20;99.90;;;;;;5004428;28;20049;-96
2023/12/24 09:09:27;;;;;;;1.13;0.50;;;11.20;99.90;;;;;;5001814;28;20030;-96
2023/12/24 09:11:52;;;;;;;2.92;0.85;;;11.30;99.90;;;;;;5007021;28;20045;-96
2023/12/24 09:14:18;;;;;;;1.55;0.40;;;11.20;99.90;;;;;;4992904;28;20029;-95
2023/12/24 09:16:44;;;;;;;1.17;0.50;;;11.30;99.90;;;;;;5002376;28;20511;-96
2023/12/24 09:19:10;;;;;;;1.38;0.63;;;11.30;99.90;;;;;;4989153;28;20018;-96
2023/12/24 09:21:35;;;;;;;2.78;0.50;;;11.30;99.90;;;;;;5002293;28;20021;-94
2023/12/24 09:24:01;;;;;;;2.83;0.60;;;11.30;99.90;;;;;;5003581;28;20034;-96
2023/12/24 09:26:28;;;;;;;2.50;0.60;;;11.30;99.90;;;;;;5004545;28;20027;-95
2023/12/24 09:28:54;;;;;;;3.45;0.75;;;11.30;99.90;;;;;;5003252;28;20120;-94
2023/12/24 09:31:22;;;;;;;4.05;0.80;;;11.30;99.90;;;;;;4990406;28;20030;-96
2023/12/24 09:33:48;;;;;;;6.38;0.80;;;11.30;99.90;;;;;;4998684;28;20054;-95
2023/12/24 09:36:15;;;;;;;4.13;0.70;;;11.30;99.90;;;;;;5015042;28;20355;-96
2023/12/24 09:38:40;;;;;;;7.72;0.80;;;11.40;99.90;;;;;;4996898;28;20062;-94
2023/12/24 09:41:06;;;;;;;4.82;0.65;;;11.40;99.90;;;;;;5002847;28;20023;-96
2023/12/24 09:43:35;;;;;;;4.80;0.70;;;11.40;99.90;;;;;;4998650;28;20053;-95
2023/12/24 09:46:01;;;;;;;9.23;1.17;;;11.40;99.90;;;;;;5004843;28;20475;-96
2023/12/24 09:48:27;;;;;;;6.65;1.08;;;11.40;99.90;;;;;;5009698;28;20076;-96
2023/12/24 09:50:55;;;;;;;12.55;2.00;;;11.40;99.90;;;;;;5009421;28;20110;-96
2023/12/24 09:53:38;;;;;;;11.55;2.95;;;11.40;99.90;;;;;;5010498;28;20054;-96
2023/12/24 09:56:06;;;;;;;9.75;2.60;;;11.40;99.90;;;;;;4998040;28;20018;-95
2023/12/24 09:58:31;;;;;;;10.20;3.08;;;11.40;99.90;;;;;;5009268;28;20117;-96
2023/12/24 10:01:00;;;;;;;12.25;3.95;;;11.50;99.90;;;;;;5005923;28;20072;-96
2023/12/24 10:03:26;;;;;;;13.75;4.35;;;11.60;99.90;;;;;;4991136;28;20046;-96
2023/12/24 10:06:10;;;;;;;18.00;4.50;;;11.50;99.90;;;;;;5005216;28;20018;-95
2023/12/24 10:08:41;;;;;;;14.57;4.63;;;11.50;99.90;;;;;;5007858;28;20030;-95
2023/12/24 10:11:20;;;;;;;19.90;5.45;;;11.50;99.90;;;;;;5004590;28;20022;-94
2023/12/24 10:13:56;;;;;;;23.70;5.80;;;11.60;99.90;;;;;;4998834;28;20030;-96
2023/12/24 10:16:22;;;;;;;21.42;5.75;;;11.70;99.90;;;;;;5015828;28;20011;-95
2023/12/24 10:18:51;;;;;;;19.63;5.75;;;11.70;99.90;;;;;;5011484;28;20069;-94
2023/12/24 10:21:18;;;;;;;21.05;5.25;;;11.70;99.90;;;;;;5004422;28;20035;-95
2023/12/24 10:23:44;;;;;;;27.98;6.43;;;11.70;99.90;;;;;;5004501;28;20026;-95
2023/12/24 10:26:12;;;;;;;25.40;6.32;;;11.80;99.90;;;;;;5012275;28;20065;-95
2023/12/24 10:28:50;;;;;;;22.42;5.70;;;11.90;99.90;;;;;;5023738;28;20046;-96
2023/12/24 10:31:19;;;;;;;23.33;5.57;;;12.00;99.90;;;;;;5015629;28;20030;-95
2023/12/24 10:33:45;;;;;;;24.23;5.80;;;12.00;99.90;;;;;;5009230;28;20054;-94
2023/12/24 10:36:10;;;;;;;23.60;4.72;;;12.10;99.90;;;;;;5003962;28;20513;-95
2023/12/24 10:38:37;;;;;;;26.30;4.85;;;12.00;99.90;;;;;;4994674;28;20073;-95
2023/12/24 10:41:06;;;;;;;17.98;4.53;;;12.00;99.90;;;;;;4994630;28;22471;-95
2023/12/24 10:43:32;;;;;;;18.05;4.30;;;12.10;99.90;;;;;;4995672;28;20026;-96
2023/12/24 10:45:57;;;;;;;19.25;5.43;;;12.10;99.90;;;;;;5000843;28;20023;-96
2023/12/24 10:48:23;;;;;;;29.13;6.80;;;12.20;99.90;;;;;;5000937;28;20422;-96
2023/12/24 10:50:50;;;;;;;17.35;4.95;;;12.20;99.90;;;;;;5004607;28;20022;-95
2023/12/24 10:53:18;;;;;;;22.65;6.20;;;12.20;99.90;;;;;;5003079;28;20038;-95
2023/12/24 10:56:09;;;;;;;20.92;6.15;;;12.20;99.90;;;;;;5004231;28;20022;-95
2023/12/24 10:58:59;;;;;;;20.45;6.72;;;12.20;99.90;;;;;;4998825;28;20026;-95
2023/12/24 11:01:24;;;;;;;21.23;6.80;;;12.30;99.90;;;;;;4989054;28;20034;-94
2023/12/24 11:03:53;;;;;;;17.25;7.47;;;12.30;99.90;;;;;;5003556;28;20164;-94
2023/12/24 11:06:37;;;;;;;21.42;7.60;;;12.30;99.90;;;;;;5000512;28;20117;-93
2023/12/24 11:09:18;;;;;;;16.65;7.70;;;12.30;99.90;;;;;;5002225;28;20026;-94
2023/12/24 11:12:00;;;;;;;23.00;7.70;;;12.30;99.90;;;;;;5001540;28;20027;-96
2023/12/24 11:14:44;;;;;;;20.90;7.82;;;12.40;99.90;;;;;;4998003;28;20030;-95
2023/12/24 11:17:31;;;;;;;22.65;8.82;;;12.30;99.90;;;;;;4999897;28;20435;-93
2023/12/24 11:20:25;;;;;;;19.55;7.97;;;12.30;99.90;;;;;;4990887;28;20054;-93
2023/12/24 11:23:06;;;;;;;28.70;9.00;;;12.40;99.90;;;;;;4997638;28;20098;-95
2023/12/24 11:25:58;;;;;;;22.00;8.02;;;12.30;99.90;;;;;;5005623;28;20050;-95
2023/12/24 11:28:26;;;;;;;13.40;7.97;;;12.30;99.90;;;;;;5000792;28;20153;-94
2023/12/24 11:30:52;;;;;;;14.93;7.00;;;12.30;99.90;;;;;;5022805;28;20030;-95
2023/12/24 11:33:46;;;;;;;16.30;7.13;;;12.30;99.90;;;;;;5007498;28;20035;-95
2023/12/24 11:36:15;;;;;;;14.75;6.38;;;12.30;99.90;;;;;;5010669;28;20022;-95
2023/12/24 11:38:41;;;;;;;9.00;5.80;;;12.40;99.90;;;;;;5011320;28;20009;-95
2023/12/24 11:41:24;;;;;;;9.98;5.10;;;12.30;99.90;;;;;;4994504;28;20094;-95
2023/12/24 11:44:02;;;;;;;;;;;12.40;99.90;;;;;;4996213;28;20030;-95
2023/12/24 11:46:30;;;;;;;13.73;4.25;;;12.30;99.90;;;;;;5022088;28;19910;-95
2023/12/24 11:49:02;;;;;;;8.75;3.28;;;12.30;99.90;;;;;;4995623;28;20045;-93
2023/12/24 11:51:32;;;;;;;8.93;2.75;;;12.40;99.90;;;;;;5010174;28;20022;-95
2023/12/24 11:54:00;;;;;;;9.07;2.20;;;12.30;99.90;;;;;;5009831;28;20023;-94
2023/12/24 11:56:28;;;;;;;4.70;2.20;;;12.30;99.90;;;;;;5005222;28;20030;-93
2023/12/24 11:58:57;;;;;;;6.40;2.25;;;12.30;99.90;;;;;;5003044;28;20002;-94
2023/12/24 12:01:30;;;;;;;8.45;1.50;;;12.30;99.90;;;;;;5002780;28;20019;-95
2023/12/24 12:04:00;;;;;;;8.10;2.22;;;12.30;99.90;;;;;;5004362;28;20121;-96
2023/12/24 12:06:27;;;;;;;6.97;2.17;;;12.30;99.90;;;;;;5007118;28;20011;-96
2023/12/24 12:08:53;;;;;;;9.00;3.13;;;12.30;99.90;;;;;;5024841;28;20041;-95
2023/12/24 12:11:19;;;;;;;6.53;5.00;;;12.30;99.90;;;;;;5005853;28;20019;-95
2023/12/24 12:13:45;;;;;;;7.78;5.40;;;12.30;99.90;;;;;;4999021;28;20053;-92
2023/12/24 12:16:11;;;;;;;8.55;5.50;;;12.30;99.90;;;;;;4997978;28;20019;-94
2023/12/24 12:18:36;;;;;;;11.27;7.13;;;12.30;99.90;;;;;;5008900;28;20018;-92
2023/12/24 12:21:02;;;;;;;10.38;7.60;;;12.30;99.90;;;;;;5000306;28;20056;-94
2023/12/24 12:23:29;;;;;;;11.40;7.40;;;12.30;99.90;;;;;;4998160;28;20497;-94
2023/12/24 12:25:54;;;;;;;10.55;6.80;;;12.30;99.90;;;;;;4996981;28;20034;-95
2023/12/24 12:28:20;;;;;;;11.93;7.70;;;12.30;99.90;;;;;;5008294;28;20028;-95
2023/12/24 12:30:46;;;;;;;8.40;6.35;;;12.30;99.90;;;;;;5009926;28;20030;-94
2023/12/24 12:33:12;;;;;;;7.80;6.15;;;12.30;99.90;;;;;;5010908;28;20111;-96
2023/12/24 12:35:38;;;;;;;8.45;5.88;;;12.30;99.90;;;;;;5022352;23;20034;-75
2023/12/24 12:38:04;;;;;;;8.70;6.10;;;12.30;99.90;;;;;;4999127;28;20031;-74
2023/12/24 12:40:30;;;;;;;9.02;5.88;;;12.30;99.90;;;;;;4987835;28;20031;-75
2023/12/24 12:42:56;;;;;;;6.05;4.60;;;12.40;99.90;;;;;;4985556;28;20593;-75
2023/12/24 12:45:22;;;;;;;6.03;4.00;;;12.40;99.90;;;;;;4991389;28;20028;-74
2023/12/24 12:47:48;;;;;;;5.18;3.50;;;12.40;99.90;;;;;;4980968;28;20026;-74
2023/12/24 12:50:14;;;;;;;4.25;2.78;;;12.40;99.90;;;;;;4978717;28;20026;-75